sensor_id;sensor_type;location;lat;lon;timestamp;temperature;humidity
76838;DHT22;65797;47.352;8.164;2023-02-23T03:21:03;7.50;99.90
76838;DHT22;65797;47.352;8.164;2023-02-23T03:38:10;7.50;99.90
76838;DHT22;65797;47.352;8.164;2023-02-23T04:04:21;7.50;1.00
76838;DHT22;65797;47.352;8.164;2023-02-23T04:07:06;7.50;1.00
76838;DHT22;65797;47.352;8.164;2023-02-23T04:09:51;7.40;1.00
76838;DHT22;65797;47.352;8.164;2023-02-23T04:18:13;7.40;99.90
76838;DHT22;65797;47.352;8.164;2023-02-23T04:20:39;7.30;99.90
76838;DHT22;65797;47.352;8.164;2023-02-23T04:23:05;7.30;99.90
76838;DHT22;65797;47.352;8.164;2023-02-23T04:25:31;7.30;99.90
76838;DHT22;65797;47.352;8.164;2023-02-23T04:27:57;7.20;99.90
76838;DHT22;65797;47.352;8.164;2023-02-23T04:30:22;7.20;99.90
76838;DHT22;65797;47.352;8.164;2023-02-23T04:32:53;7.20;99.90
76838;DHT22;65797;47.352;8.164;2023-02-23T04:35:19;7.20;99.90
76838;DHT22;65797;47.352;8.164;2023-02-23T04:37:44;7.20;99.90
76838;DHT22;65797;47.352;8.164;2023-02-23T04:40:11;7.20;99.90
76838;DHT22;65797;47.352;8.164;2023-02-23T04:42:38;7.20;99.90
76838;DHT22;65797;47.352;8.164;2023-02-23T04:45:05;7.10;99.90
76838;DHT22;65797;47.352;8.164;2023-02-23T04:47:31;7.20;99.90
76838;DHT22;65797;47.352;8.164;2023-02-23T04:49:56;7.10;99.90
76838;DHT22;65797;47.352;8.164;2023-02-23T04:52:22;7.10;99.90
76838;DHT22;65797;47.352;8.164;2023-02-23T04:54:48;7.10;99.90
76838;DHT22;65797;47.352;8.164;2023-02-23T04:57:14;7.10;99.90
76838;DHT22;65797;47.352;8.164;2023-02-23T04:59:40;7.10;99.90
76838;DHT22;65797;47.352;8.164;2023-02-23T05:04:41;7.10;99.90
76838;DHT22;65797;47.352;8.164;2023-02-23T05:07:07;7.10;99.90
76838;DHT22;65797;47.352;8.164;2023-02-23T05:09:32;7.10;1.00
76838;DHT22;65797;47.352;8.164;2023-02-23T05:14:34;7.00;1.00
76838;DHT22;65797;47.352;8.164;2023-02-23T05:17:00;7.10;1.00
76838;DHT22;65797;47.352;8.164;2023-02-23T05:19:26;7.10;1.00
76838;DHT22;65797;47.352;8.164;2023-02-23T05:21:52;7.10;99.90
76838;DHT22;65797;47.352;8.164;2023-02-23T05:24:18;7.00;99.90
76838;DHT22;65797;47.352;8.164;2023-02-23T05:26:44;7.00;99.90
76838;DHT22;65797;47.352;8.164;2023-02-23T05:31:45;7.00;99.90
76838;DHT22;65797;47.352;8.164;2023-02-23T05:34:13;7.00;1.00
76838;DHT22;65797;47.352;8.164;2023-02-23T05:36:38;7.00;1.00
76838;DHT22;65797;47.352;8.164;2023-02-23T05:39:04;7.00;1.00
76838;DHT22;65797;47.352;8.164;2023-02-23T05:41:30;7.00;1.00
76838;DHT22;65797;47.352;8.164;2023-02-23T05:43:56;7.00;1.00
76838;DHT22;65797;47.352;8.164;2023-02-23T05:46:24;7.00;1.00
76838;DHT22;65797;47.352;8.164;2023-02-23T05:48:58;7.00;1.00
76838;DHT22;65797;47.352;8.164;2023-02-23T05:51:26;7.00;1.00
76838;DHT22;65797;47.352;8.164;2023-02-23T05:53:52;7.00;1.00
76838;DHT22;65797;47.352;8.164;2023-02-23T05:56:18;7.00;1.00
76838;DHT22;65797;47.352;8.164;2023-02-23T05:58:53;7.00;1.00
76838;DHT22;65797;47.352;8.164;2023-02-23T06:01:19;7.10;1.00
76838;DHT22;65797;47.352;8.164;2023-02-23T06:03:46;7.10;1.00
76838;DHT22;65797;47.352;8.164;2023-02-23T06:06:12;7.10;1.00
76838;DHT22;65797;47.352;8.164;2023-02-23T06:11:12;7.00;1.00
76838;DHT22;65797;47.352;8.164;2023-02-23T06:13:38;7.00;1.00
76838;DHT22;65797;47.352;8.164;2023-02-23T06:16:05;7.00;1.00
76838;DHT22;65797;47.352;8.164;2023-02-23T06:18:30;7.00;1.00
76838;DHT22;65797;47.352;8.164;2023-02-23T06:21:01;7.00;1.00
76838;DHT22;65797;47.352;8.164;2023-02-23T06:36:25;7.00;1.00
76838;DHT22;65797;47.352;8.164;2023-02-23T06:59:33;7.10;1.00
76838;DHT22;65797;47.352;8.164;2023-02-23T07:02:01;7.10;1.00
76838;DHT22;65797;47.352;8.164;2023-02-23T07:04:29;7.10;1.00
76838;DHT22;65797;47.352;8.164;2023-02-23T07:06:54;7.10;1.00
76838;DHT22;65797;47.352;8.164;2023-02-23T07:09:20;7.20;1.00
76838;DHT22;65797;47.352;8.164;2023-02-23T07:11:46;7.20;1.00
76838;DHT22;65797;47.352;8.164;2023-02-23T07:14:12;7.20;1.00
76838;DHT22;65797;47.352;8.164;2023-02-23T07:16:38;7.20;1.00
76838;DHT22;65797;47.352;8.164;2023-02-23T07:19:05;7.20;1.00
76838;DHT22;65797;47.352;8.164;2023-02-23T07:21:31;7.20;1.00
76838;DHT22;65797;47.352;8.164;2023-02-23T07:23:58;7.20;1.00
76838;DHT22;65797;47.352;8.164;2023-02-23T07:26:24;7.20;1.00
76838;DHT22;65797;47.352;8.164;2023-02-23T07:28:50;7.30;1.00
76838;DHT22;65797;47.352;8.164;2023-02-23T07:31:19;7.30;1.00
76838;DHT22;65797;47.352;8.164;2023-02-23T07:33:44;7.30;1.00
76838;DHT22;65797;47.352;8.164;2023-02-23T07:36:10;7.30;1.00
76838;DHT22;65797;47.352;8.164;2023-02-23T07:38:36;7.30;1.00
76838;DHT22;65797;47.352;8.164;2023-02-23T07:41:03;7.30;1.00
76838;DHT22;65797;47.352;8.164;2023-02-23T07:43:28;7.40;1.00
76838;DHT22;65797;47.352;8.164;2023-02-23T07:45:58;7.50;1.00
76838;DHT22;65797;47.352;8.164;2023-02-23T07:48:25;7.50;1.00
76838;DHT22;65797;47.352;8.164;2023-02-23T07:50:51;7.50;1.00
76838;DHT22;65797;47.352;8.164;2023-02-23T07:53:16;7.50;1.00
76838;DHT22;65797;47.352;8.164;2023-02-23T07:55:42;7.50;1.00
76838;DHT22;65797;47.352;8.164;2023-02-23T07:58:08;7.60;1.00
76838;DHT22;65797;47.352;8.164;2023-02-23T08:00:35;7.60;1.00
76838;DHT22;65797;47.352;8.164;2023-02-23T08:03:03;7.70;1.00
76838;DHT22;65797;47.352;8.164;2023-02-23T08:05:29;7.70;1.00
76838;DHT22;65797;47.352;8.164;2023-02-23T08:07:55;7.80;1.00
76838;DHT22;65797;47.352;8.164;2023-02-23T08:10:22;7.80;1.00
76838;DHT22;65797;47.352;8.164;2023-02-23T08:12:47;7.90;1.00
76838;DHT22;65797;47.352;8.164;2023-02-23T08:15:13;7.90;1.00
76838;DHT22;65797;47.352;8.164;2023-02-23T08:17:39;8.00;1.00
76838;DHT22;65797;47.352;8.164;2023-02-23T08:20:06;8.00;1.00
76838;DHT22;65797;47.352;8.164;2023-02-23T08:22:33;8.10;1.00
76838;DHT22;65797;47.352;8.164;2023-02-23T08:24:58;8.30;1.00
76838;DHT22;65797;47.352;8.164;2023-02-23T08:27:24;8.40;1.00
76838;DHT22;65797;47.352;8.164;2023-02-23T08:29:53;8.50;1.00
76838;DHT22;65797;47.352;8.164;2023-02-23T08:32:19;8.50;1.00
76838;DHT22;65797;47.352;8.164;2023-02-23T08:34:45;8.70;1.00
76838;DHT22;65797;47.352;8.164;2023-02-23T08:37:11;8.70;1.00
76838;DHT22;65797;47.352;8.164;2023-02-23T08:39:37;8.80;1.00
76838;DHT22;65797;47.352;8.164;2023-02-23T08:42:03;8.80;1.00
76838;DHT22;65797;47.352;8.164;2023-02-23T08:44:29;8.80;1.00
76838;DHT22;65797;47.352;8.164;2023-02-23T08:46:55;8.90;1.00
76838;DHT22;65797;47.352;8.164;2023-02-23T08:49:23;9.00;1.00
76838;DHT22;65797;47.352;8.164;2023-02-23T08:51:49;9.10;1.00
76838;DHT22;65797;47.352;8.164;2023-02-23T08:54:15;9.20;1.00
76838;DHT22;65797;47.352;8.164;2023-02-23T08:56:43;9.30;1.00
76838;DHT22;65797;47.352;8.164;2023-02-23T08:59:10;9.50;99.90
76838;DHT22;65797;47.352;8.164;2023-02-23T09:01:36;9.70;1.00
76838;DHT22;65797;47.352;8.164;2023-02-23T09:04:03;9.90;99.90
76838;DHT22;65797;47.352;8.164;2023-02-23T09:06:30;10.10;99.90
76838;DHT22;65797;47.352;8.164;2023-02-23T09:08:56;10.10;1.00
76838;DHT22;65797;47.352;8.164;2023-02-23T09:11:23;10.20;99.90
76838;DHT22;65797;47.352;8.164;2023-02-23T09:13:49;10.30;99.90
76838;DHT22;65797;47.352;8.164;2023-02-23T09:16:15;10.40;1.00
76838;DHT22;65797;47.352;8.164;2023-02-23T09:18:41;10.40;99.90
76838;DHT22;65797;47.352;8.164;2023-02-23T09:21:16;10.50;1.00
76838;DHT22;65797;47.352;8.164;2023-02-23T09:23:44;10.60;1.00
76838;DHT22;65797;47.352;8.164;2023-02-23T09:26:11;10.60;1.00
76838;DHT22;65797;47.352;8.164;2023-02-23T09:28:37;10.60;99.90
76838;DHT22;65797;47.352;8.164;2023-02-23T09:31:10;10.70;99.90
76838;DHT22;65797;47.352;8.164;2023-02-23T09:33:36;10.60;78.40
76838;DHT22;65797;47.352;8.164;2023-02-23T09:36:13;10.70;99.90
76838;DHT22;65797;47.352;8.164;2023-02-23T09:38:43;10.80;99.90
76838;DHT22;65797;47.352;8.164;2023-02-23T09:44:25;11.30;99.90
76838;DHT22;65797;47.352;8.164;2023-02-23T09:49:32;11.50;63.30
76838;DHT22;65797;47.352;8.164;2023-02-23T09:52:00;11.70;1.00
76838;DHT22;65797;47.352;8.164;2023-02-23T09:54:31;12.10;1.00
76838;DHT22;65797;47.352;8.164;2023-02-23T09:57:04;12.40;1.00
76838;DHT22;65797;47.352;8.164;2023-02-23T09:59:31;12.80;1.00
76838;DHT22;65797;47.352;8.164;2023-02-23T10:02:31;13.10;99.90
76838;DHT22;65797;47.352;8.164;2023-02-23T10:05:04;13.40;99.90
76838;DHT22;65797;47.352;8.164;2023-02-23T10:10:27;13.80;1.00
76838;DHT22;65797;47.352;8.164;2023-02-23T10:18:48;14.10;1.00
76838;DHT22;65797;47.352;8.164;2023-02-23T10:21:26;13.80;1.00
76838;DHT22;65797;47.352;8.164;2023-02-23T10:26:58;14.20;1.00
76838;DHT22;65797;47.352;8.164;2023-02-23T10:29:35;14.40;1.00
76838;DHT22;65797;47.352;8.164;2023-02-23T10:32:05;14.40;1.00
76838;DHT22;65797;47.352;8.164;2023-02-23T10:34:32;14.50;1.00
76838;DHT22;65797;47.352;8.164;2023-02-23T10:37:03;14.90;1.00
76838;DHT22;65797;47.352;8.164;2023-02-23T10:39:30;14.80;1.00
76838;DHT22;65797;47.352;8.164;2023-02-23T10:42:04;15.30;1.00
76838;DHT22;65797;47.352;8.164;2023-02-23T10:44:31;15.30;99.90
76838;DHT22;65797;47.352;8.164;2023-02-23T10:47:20;15.70;1.00
76838;DHT22;65797;47.352;8.164;2023-02-23T10:49:52;15.90;99.90
76838;DHT22;65797;47.352;8.164;2023-02-23T10:52:40;16.10;1.00
76838;DHT22;65797;47.352;8.164;2023-02-23T10:55:19;16.30;1.00
76838;DHT22;65797;47.352;8.164;2023-02-23T10:57:48;16.40;99.90
76838;DHT22;65797;47.352;8.164;2023-02-23T11:02:43;16.50;99.90
76838;DHT22;65797;47.352;8.164;2023-02-23T11:08:21;16.00;99.90
76838;DHT22;65797;47.352;8.164;2023-02-23T11:11:16;15.60;99.90
76838;DHT22;65797;47.352;8.164;2023-02-23T11:13:46;14.90;1.00
76838;DHT22;65797;47.352;8.164;2023-02-23T11:16:39;15.10;1.00
76838;DHT22;65797;47.352;8.164;2023-02-23T11:21:40;15.10;1.00
76838;DHT22;65797;47.352;8.164;2023-02-23T11:26:42;15.60;1.00
76838;DHT22;65797;47.352;8.164;2023-02-23T11:29:31;15.80;1.00
76838;DHT22;65797;47.352;8.164;2023-02-23T11:32:12;16.00;1.00
76838;DHT22;65797;47.352;8.164;2023-02-23T11:34:40;15.90;99.90
76838;DHT22;65797;47.352;8.164;2023-02-23T11:37:19;16.20;99.90
76838;DHT22;65797;47.352;8.164;2023-02-23T11:40:00;16.40;99.90
76838;DHT22;65797;47.352;8.164;2023-02-23T11:42:30;16.60;99.90
76838;DHT22;65797;47.352;8.164;2023-02-23T11:47:39;16.70;99.90
76838;DHT22;65797;47.352;8.164;2023-02-23T11:50:07;16.60;99.90
76838;DHT22;65797;47.352;8.164;2023-02-23T11:52:35;16.90;99.90
76838;DHT22;65797;47.352;8.164;2023-02-23T11:55:05;15.90;99.90
76838;DHT22;65797;47.352;8.164;2023-02-23T11:57:33;16.40;99.90
76838;DHT22;65797;47.352;8.164;2023-02-23T12:00:04;16.70;99.90
76838;DHT22;65797;47.352;8.164;2023-02-23T12:05:32;16.70;99.90
76838;DHT22;65797;47.352;8.164;2023-02-23T12:08:17;16.90;99.90
76838;DHT22;65797;47.352;8.164;2023-02-23T12:10:50;17.40;99.90
76838;DHT22;65797;47.352;8.164;2023-02-23T12:13:30;16.80;99.90
76838;DHT22;65797;47.352;8.164;2023-02-23T12:19:08;17.00;99.90
76838;DHT22;65797;47.352;8.164;2023-02-23T12:45:05;16.80;99.90
76838;DHT22;65797;47.352;8.164;2023-02-23T12:47:43;17.10;99.90
76838;DHT22;65797;47.352;8.164;2023-02-23T13:04:07;16.40;99.90
76838;DHT22;65797;47.352;8.164;2023-02-23T13:06:38;16.70;99.90
76838;DHT22;65797;47.352;8.164;2023-02-23T13:15:20;17.10;99.90
76838;DHT22;65797;47.352;8.164;2023-02-23T13:18:14;17.00;99.90
76838;DHT22;65797;47.352;8.164;2023-02-23T13:20:50;16.70;99.90
76838;DHT22;65797;47.352;8.164;2023-02-23T13:23:39;16.80;99.90
76838;DHT22;65797;47.352;8.164;2023-02-23T13:29:09;17.10;99.90
76838;DHT22;65797;47.352;8.164;2023-02-23T13:31:40;16.90;99.90
76838;DHT22;65797;47.352;8.164;2023-02-23T13:34:14;17.00;99.90
76838;DHT22;65797;47.352;8.164;2023-02-23T13:36:43;16.90;99.90
76838;DHT22;65797;47.352;8.164;2023-02-23T13:39:15;16.40;99.90
76838;DHT22;65797;47.352;8.164;2023-02-23T13:50:33;16.90;99.90
76838;DHT22;65797;47.352;8.164;2023-02-23T13:53:06;17.10;99.90
76838;DHT22;65797;47.352;8.164;2023-02-23T13:55:50;17.20;99.90
76838;DHT22;65797;47.352;8.164;2023-02-23T13:58:22;17.30;99.90
76838;DHT22;65797;47.352;8.164;2023-02-23T14:01:14;17.30;99.90
76838;DHT22;65797;47.352;8.164;2023-02-23T14:03:56;17.20;99.90
76838;DHT22;65797;47.352;8.164;2023-02-23T14:06:25;17.30;99.90
76838;DHT22;65797;47.352;8.164;2023-02-23T14:08:59;17.50;99.90
76838;DHT22;65797;47.352;8.164;2023-02-23T14:14:05;17.40;99.90
76838;DHT22;65797;47.352;8.164;2023-02-23T14:16:31;17.50;99.90
76838;DHT22;65797;47.352;8.164;2023-02-23T14:21:50;17.90;99.90
76838;DHT22;65797;47.352;8.164;2023-02-23T14:24:25;18.00;99.90
76838;DHT22;65797;47.352;8.164;2023-02-23T14:29:42;17.90;99.90
76838;DHT22;65797;47.352;8.164;2023-02-23T15:00:40;16.60;99.90
76838;DHT22;65797;47.352;8.164;2023-02-23T15:03:10;16.60;99.90
76838;DHT22;65797;47.352;8.164;2023-02-23T15:05:58;16.60;99.90
76838;DHT22;65797;47.352;8.164;2023-02-23T15:08:27;16.50;99.90
76838;DHT22;65797;47.352;8.164;2023-02-23T15:11:02;16.50;99.90
76838;DHT22;65797;47.352;8.164;2023-02-23T15:13:35;16.20;99.90
76838;DHT22;65797;47.352;8.164;2023-02-23T15:16:34;16.10;99.90
76838;DHT22;65797;47.352;8.164;2023-02-23T15:19:02;16.00;99.90
76838;DHT22;65797;47.352;8.164;2023-02-23T15:21:29;15.80;99.90
76838;DHT22;65797;47.352;8.164;2023-02-23T15:24:13;15.70;99.90
76838;DHT22;65797;47.352;8.164;2023-02-23T15:26:45;15.60;99.90
76838;DHT22;65797;47.352;8.164;2023-02-23T15:31:49;15.40;99.90
76838;DHT22;65797;47.352;8.164;2023-02-23T15:34:22;15.30;99.90
76838;DHT22;65797;47.352;8.164;2023-02-23T15:37:10;15.30;99.90
76838;DHT22;65797;47.352;8.164;2023-02-23T15:39:49;15.10;99.90
76838;DHT22;65797;47.352;8.164;2023-02-23T15:42:23;15.00;99.90
76838;DHT22;65797;47.352;8.164;2023-02-23T15:47:34;14.90;99.90
76838;DHT22;65797;47.352;8.164;2023-02-23T15:50:18;14.80;99.90
76838;DHT22;65797;47.352;8.164;2023-02-23T15:52:51;14.70;99.90
76838;DHT22;65797;47.352;8.164;2023-02-23T15:57:59;14.50;99.90
76838;DHT22;65797;47.352;8.164;2023-02-23T16:00:40;14.40;99.90
76838;DHT22;65797;47.352;8.164;2023-02-23T16:06:04;14.30;99.90
76838;DHT22;65797;47.352;8.164;2023-02-23T16:14:13;14.10;99.90
76838;DHT22;65797;47.352;8.164;2023-02-23T16:16:42;14.00;99.90
76838;DHT22;65797;47.352;8.164;2023-02-23T16:19:13;13.90;99.90
76838;DHT22;65797;47.352;8.164;2023-02-23T16:26:53;13.60;99.90
76838;DHT22;65797;47.352;8.164;2023-02-23T16:31:58;13.50;99.90
76838;DHT22;65797;47.352;8.164;2023-02-23T16:34:27;13.40;99.90
76838;DHT22;65797;47.352;8.164;2023-02-23T16:36:59;13.40;99.90
76838;DHT22;65797;47.352;8.164;2023-02-23T16:42:01;13.20;99.90
76838;DHT22;65797;47.352;8.164;2023-02-23T16:44:29;13.20;99.90
76838;DHT22;65797;47.352;8.164;2023-02-23T16:46:56;13.10;99.90
76838;DHT22;65797;47.352;8.164;2023-02-23T16:49:41;13.10;99.90
76838;DHT22;65797;47.352;8.164;2023-02-23T16:52:19;13.00;99.90
76838;DHT22;65797;47.352;8.164;2023-02-23T17:02:34;12.50;99.90
76838;DHT22;65797;47.352;8.164;2023-02-23T17:05:00;12.40;99.90
76838;DHT22;65797;47.352;8.164;2023-02-23T17:07:26;12.40;99.90
76838;DHT22;65797;47.352;8.164;2023-02-23T17:09:52;12.30;99.90
76838;DHT22;65797;47.352;8.164;2023-02-23T17:12:18;12.30;99.90
76838;DHT22;65797;47.352;8.164;2023-02-23T17:14:46;12.20;99.90
76838;DHT22;65797;47.352;8.164;2023-02-23T17:17:17;12.00;99.90
76838;DHT22;65797;47.352;8.164;2023-02-23T17:19:43;11.90;99.90
76838;DHT22;65797;47.352;8.164;2023-02-23T17:22:10;11.80;99.90
76838;DHT22;65797;47.352;8.164;2023-02-23T17:24:37;11.70;1.00
76838;DHT22;65797;47.352;8.164;2023-02-23T17:27:03;11.60;1.00
76838;DHT22;65797;47.352;8.164;2023-02-23T17:29:29;11.50;1.00
76838;DHT22;65797;47.352;8.164;2023-02-23T17:31:55;11.40;1.00
76838;DHT22;65797;47.352;8.164;2023-02-23T17:34:24;11.30;1.00
76838;DHT22;65797;47.352;8.164;2023-02-23T17:36:50;11.20;1.00
76838;DHT22;65797;47.352;8.164;2023-02-23T17:39:16;11.20;1.00
76838;DHT22;65797;47.352;8.164;2023-02-23T17:41:42;11.10;1.00
76838;DHT22;65797;47.352;8.164;2023-02-23T17:44:08;11.00;1.00
76838;DHT22;65797;47.352;8.164;2023-02-23T17:46:34;10.90;1.00
76838;DHT22;65797;47.352;8.164;2023-02-23T17:49:00;10.80;1.00
76838;DHT22;65797;47.352;8.164;2023-02-23T17:51:26;10.80;1.00
76838;DHT22;65797;47.352;8.164;2023-02-23T17:53:52;10.60;1.00
76838;DHT22;65797;47.352;8.164;2023-02-23T17:56:18;10.50;1.00
76838;DHT22;65797;47.352;8.164;2023-02-23T17:58:46;10.40;1.00
76838;DHT22;65797;47.352;8.164;2023-02-23T18:01:11;10.30;1.00
76838;DHT22;65797;47.352;8.164;2023-02-23T18:03:37;10.30;1.00
76838;DHT22;65797;47.352;8.164;2023-02-23T18:06:08;10.20;1.00
76838;DHT22;65797;47.352;8.164;2023-02-23T18:08:35;10.20;1.00
76838;DHT22;65797;47.352;8.164;2023-02-23T18:11:01;10.10;1.00
76838;DHT22;65797;47.352;8.164;2023-02-23T18:13:28;10.00;1.00
76838;DHT22;65797;47.352;8.164;2023-02-23T18:15:58;10.00;1.00
76838;DHT22;65797;47.352;8.164;2023-02-23T18:18:24;9.80;1.00
76838;DHT22;65797;47.352;8.164;2023-02-23T18:20:52;9.70;1.00
76838;DHT22;65797;47.352;8.164;2023-02-23T18:23:19;9.60;1.00
76838;DHT22;65797;47.352;8.164;2023-02-23T18:25:46;9.60;1.00
76838;DHT22;65797;47.352;8.164;2023-02-23T18:28:12;9.50;1.00
76838;DHT22;65797;47.352;8.164;2023-02-23T18:30:38;9.40;1.00
76838;DHT22;65797;47.352;8.164;2023-02-23T18:33:04;9.30;1.00
76838;DHT22;65797;47.352;8.164;2023-02-23T18:35:36;9.30;33.30
76838;DHT22;65797;47.352;8.164;2023-02-23T18:38:07;9.20;32.90
76838;DHT22;65797;47.352;8.164;2023-02-23T18:40:34;9.20;44.00
76838;DHT22;65797;47.352;8.164;2023-02-23T18:43:00;9.20;1.00
76838;DHT22;65797;47.352;8.164;2023-02-23T18:45:26;9.10;1.00
76838;DHT22;65797;47.352;8.164;2023-02-23T18:47:52;9.00;1.00
76838;DHT22;65797;47.352;8.164;2023-02-23T18:50:19;9.00;1.00
76838;DHT22;65797;47.352;8.164;2023-02-23T18:52:48;8.90;1.00
76838;DHT22;65797;47.352;8.164;2023-02-23T18:55:17;8.80;1.00
76838;DHT22;65797;47.352;8.164;2023-02-23T18:57:45;8.60;99.90
76838;DHT22;65797;47.352;8.164;2023-02-23T19:00:12;8.60;99.90
76838;DHT22;65797;47.352;8.164;2023-02-23T19:02:39;8.60;49.70
76838;DHT22;65797;47.352;8.164;2023-02-23T19:05:07;8.50;23.50
76838;DHT22;65797;47.352;8.164;2023-02-23T19:07:33;8.50;99.90
76838;DHT22;65797;47.352;8.164;2023-02-23T19:10:00;8.40;1.00
76838;DHT22;65797;47.352;8.164;2023-02-23T19:12:30;8.30;99.90
76838;DHT22;65797;47.352;8.164;2023-02-23T19:14:57;8.30;99.90
76838;DHT22;65797;47.352;8.164;2023-02-23T19:17:27;8.30;15.50
76838;DHT22;65797;47.352;8.164;2023-02-23T19:19:54;8.20;1.00
76838;DHT22;65797;47.352;8.164;2023-02-23T19:22:28;8.10;99.90
76838;DHT22;65797;47.352;8.164;2023-02-23T19:24:54;8.00;99.90
76838;DHT22;65797;47.352;8.164;2023-02-23T19:27:20;8.00;99.90
76838;DHT22;65797;47.352;8.164;2023-02-23T19:29:46;8.00;99.90
76838;DHT22;65797;47.352;8.164;2023-02-23T19:32:12;7.90;99.90
76838;DHT22;65797;47.352;8.164;2023-02-23T19:34:41;7.90;99.90
76838;DHT22;65797;47.352;8.164;2023-02-23T19:37:07;7.80;99.90
76838;DHT22;65797;47.352;8.164;2023-02-23T19:39:34;7.80;99.90
76838;DHT22;65797;47.352;8.164;2023-02-23T19:42:00;7.80;99.90
76838;DHT22;65797;47.352;8.164;2023-02-23T19:44:26;7.70;99.90
76838;DHT22;65797;47.352;8.164;2023-02-23T19:46:52;7.60;27.40
76838;DHT22;65797;47.352;8.164;2023-02-23T19:49:17;7.50;99.90
76838;DHT22;65797;47.352;8.164;2023-02-23T19:51:43;7.40;94.40
76838;DHT22;65797;47.352;8.164;2023-02-23T19:54:10;7.30;99.90
76838;DHT22;65797;47.352;8.164;2023-02-23T19:56:36;7.30;99.90
76838;DHT22;65797;47.352;8.164;2023-02-23T19:59:03;7.30;99.90
76838;DHT22;65797;47.352;8.164;2023-02-23T20:01:29;7.30;99.90
76838;DHT22;65797;47.352;8.164;2023-02-23T20:03:57;7.20;99.90
76838;DHT22;65797;47.352;8.164;2023-02-23T20:06:31;7.20;99.90
76838;DHT22;65797;47.352;8.164;2023-02-23T20:09:00;7.10;99.90
76838;DHT22;65797;47.352;8.164;2023-02-23T20:11:26;7.10;99.90
76838;DHT22;65797;47.352;8.164;2023-02-23T20:13:52;7.00;99.90
76838;DHT22;65797;47.352;8.164;2023-02-23T20:16:19;7.00;99.90
76838;DHT22;65797;47.352;8.164;2023-02-23T20:18:45;6.90;99.90
76838;DHT22;65797;47.352;8.164;2023-02-23T20:21:16;6.90;99.90
76838;DHT22;65797;47.352;8.164;2023-02-23T20:23:43;6.70;99.90
76838;DHT22;65797;47.352;8.164;2023-02-23T20:26:14;6.70;99.90
76838;DHT22;65797;47.352;8.164;2023-02-23T20:28:41;6.60;99.90
76838;DHT22;65797;47.352;8.164;2023-02-23T20:31:18;6.60;99.90
76838;DHT22;65797;47.352;8.164;2023-02-23T20:33:46;6.60;99.90
76838;DHT22;65797;47.352;8.164;2023-02-23T20:36:15;6.50;99.90
76838;DHT22;65797;47.352;8.164;2023-02-23T20:38:41;6.50;99.90
76838;DHT22;65797;47.352;8.164;2023-02-23T20:41:07;6.40;99.90
76838;DHT22;65797;47.352;8.164;2023-02-23T20:43:33;6.40;99.90
76838;DHT22;65797;47.352;8.164;2023-02-23T20:45:59;6.40;99.90
76838;DHT22;65797;47.352;8.164;2023-02-23T20:48:35;6.20;99.90
76838;DHT22;65797;47.352;8.164;2023-02-23T20:51:00;6.20;99.90
76838;DHT22;65797;47.352;8.164;2023-02-23T20:53:27;6.20;99.90
76838;DHT22;65797;47.352;8.164;2023-02-23T20:55:54;6.20;99.90
76838;DHT22;65797;47.352;8.164;2023-02-23T20:58:20;6.10;99.90
76838;DHT22;65797;47.352;8.164;2023-02-23T21:00:50;6.10;99.90
76838;DHT22;65797;47.352;8.164;2023-02-23T21:03:19;6.10;99.90
76838;DHT22;65797;47.352;8.164;2023-02-23T21:05:46;6.10;99.90
76838;DHT22;65797;47.352;8.164;2023-02-23T21:08:13;6.00;99.90
76838;DHT22;65797;47.352;8.164;2023-02-23T21:10:39;5.90;99.90
76838;DHT22;65797;47.352;8.164;2023-02-23T21:13:06;5.90;99.90
76838;DHT22;65797;47.352;8.164;2023-02-23T21:15:34;5.80;99.90
76838;DHT22;65797;47.352;8.164;2023-02-23T21:18:01;5.80;99.90
76838;DHT22;65797;47.352;8.164;2023-02-23T21:20:27;5.80;99.90
76838;DHT22;65797;47.352;8.164;2023-02-23T21:22:53;5.80;99.90
76838;DHT22;65797;47.352;8.164;2023-02-23T21:25:24;5.70;99.90
76838;DHT22;65797;47.352;8.164;2023-02-23T21:27:50;5.70;99.90
76838;DHT22;65797;47.352;8.164;2023-02-23T21:30:20;5.70;99.90
76838;DHT22;65797;47.352;8.164;2023-02-23T21:32:47;5.60;99.90
76838;DHT22;65797;47.352;8.164;2023-02-23T21:35:14;5.60;99.90
76838;DHT22;65797;47.352;8.164;2023-02-23T21:37:40;5.60;99.90
76838;DHT22;65797;47.352;8.164;2023-02-23T21:40:10;5.50;99.90
76838;DHT22;65797;47.352;8.164;2023-02-23T21:42:38;5.40;99.90
76838;DHT22;65797;47.352;8.164;2023-02-23T21:45:06;5.30;99.90
76838;DHT22;65797;47.352;8.164;2023-02-23T21:47:34;5.30;1.00
76838;DHT22;65797;47.352;8.164;2023-02-23T21:50:00;5.30;1.00
76838;DHT22;65797;47.352;8.164;2023-02-23T21:52:27;5.30;1.00
76838;DHT22;65797;47.352;8.164;2023-02-23T21:54:54;5.30;99.90
76838;DHT22;65797;47.352;8.164;2023-02-23T21:57:20;5.30;99.90
76838;DHT22;65797;47.352;8.164;2023-02-23T21:59:48;5.30;99.90
76838;DHT22;65797;47.352;8.164;2023-02-23T22:02:14;5.20;99.90
76838;DHT22;65797;47.352;8.164;2023-02-23T22:04:39;5.20;99.90
76838;DHT22;65797;47.352;8.164;2023-02-23T22:07:06;5.20;99.90
76838;DHT22;65797;47.352;8.164;2023-02-23T22:09:33;5.20;99.90
76838;DHT22;65797;47.352;8.164;2023-02-23T22:11:59;5.20;99.90
76838;DHT22;65797;47.352;8.164;2023-02-23T22:14:24;5.10;99.90
76838;DHT22;65797;47.352;8.164;2023-02-23T22:16:50;5.00;99.90
76838;DHT22;65797;47.352;8.164;2023-02-23T22:19:16;4.90;1.00
76838;DHT22;65797;47.352;8.164;2023-02-23T22:21:43;4.90;1.00
76838;DHT22;65797;47.352;8.164;2023-02-23T22:24:11;4.90;1.00
76838;DHT22;65797;47.352;8.164;2023-02-23T22:26:39;4.80;1.00
76838;DHT22;65797;47.352;8.164;2023-02-23T22:29:07;4.80;99.90
76838;DHT22;65797;47.352;8.164;2023-02-23T22:31:35;4.70;99.90
76838;DHT22;65797;47.352;8.164;2023-02-23T22:34:01;4.70;1.00
76838;DHT22;65797;47.352;8.164;2023-02-23T22:36:27;4.70;1.00
76838;DHT22;65797;47.352;8.164;2023-02-23T22:38:57;4.70;99.90
76838;DHT22;65797;47.352;8.164;2023-02-23T22:41:22;4.60;99.90
76838;DHT22;65797;47.352;8.164;2023-02-23T22:43:48;4.60;1.00
76838;DHT22;65797;47.352;8.164;2023-02-23T22:46:15;4.60;99.90
76838;DHT22;65797;47.352;8.164;2023-02-23T22:48:42;4.60;99.90
76838;DHT22;65797;47.352;8.164;2023-02-23T22:51:12;4.50;99.90
76838;DHT22;65797;47.352;8.164;2023-02-23T22:53:38;4.50;99.90
76838;DHT22;65797;47.352;8.164;2023-02-23T22:56:04;4.40;99.90
76838;DHT22;65797;47.352;8.164;2023-02-23T22:58:30;4.40;99.90
76838;DHT22;65797;47.352;8.164;2023-02-23T23:00:57;4.40;99.90
76838;DHT22;65797;47.352;8.164;2023-02-23T23:03:42;4.40;99.90
76838;DHT22;65797;47.352;8.164;2023-02-23T23:06:19;4.40;99.90
76838;DHT22;65797;47.352;8.164;2023-02-23T23:08:50;4.20;99.90
76838;DHT22;65797;47.352;8.164;2023-02-23T23:11:23;4.30;1.00
76838;DHT22;65797;47.352;8.164;2023-02-23T23:13:53;4.30;1.00
76838;DHT22;65797;47.352;8.164;2023-02-23T23:16:24;4.30;99.90
76838;DHT22;65797;47.352;8.164;2023-02-23T23:18:55;4.30;99.90
76838;DHT22;65797;47.352;8.164;2023-02-23T23:21:23;4.20;99.90
76838;DHT22;65797;47.352;8.164;2023-02-23T23:23:57;4.10;99.90
76838;DHT22;65797;47.352;8.164;2023-02-23T23:26:25;4.10;99.90
76838;DHT22;65797;47.352;8.164;2023-02-23T23:28:59;4.10;99.90
76838;DHT22;65797;47.352;8.164;2023-02-23T23:31:30;4.10;1.00